createdAt,value
2019-05-30T00:00:17.627Z,59.60
2019-05-30T00:02:45.332Z,59.60
2019-05-30T00:05:15.960Z,59.60
2019-05-30T00:07:45.995Z,59.50
2019-05-30T00:10:16.051Z,59.50
2019-05-30T00:12:46.872Z,59.30
2019-05-30T00:15:48.192Z,59.50
2019-05-30T00:18:18.255Z,59.60
2019-05-30T00:20:48.385Z,59.70
2019-05-30T00:23:18.457Z,59.70
2019-05-30T00:25:48.597Z,59.60
2019-05-30T00:28:18.687Z,59.70
2019-05-30T00:30:48.816Z,59.60
2019-05-30T00:33:19.007Z,59.80
2019-05-30T00:35:49.114Z,60.00
2019-05-30T00:38:19.562Z,59.90
2019-05-30T00:40:49.823Z,60.50
2019-05-30T00:43:19.869Z,60.00
2019-05-30T00:45:50.089Z,60.40
2019-05-30T00:48:20.132Z,60.30
2019-05-30T00:50:50.333Z,60.30
2019-05-30T00:53:20.468Z,60.20
2019-05-30T00:55:50.919Z,60.20
2019-05-30T00:58:21.315Z,60.10
2019-05-30T01:00:51.765Z,60.00
2019-05-30T01:03:21.794Z,60.00
2019-05-30T01:05:52.333Z,60.10
2019-05-30T01:08:22.596Z,60.10
2019-05-30T01:10:53.071Z,60.10
2019-05-30T01:13:23.315Z,60.00
2019-05-30T01:15:53.330Z,60.00
2019-05-30T01:18:23.375Z,59.80
2019-05-30T01:20:53.413Z,59.80
2019-05-30T01:23:23.599Z,59.60
2019-05-30T01:25:53.779Z,59.60
2019-05-30T01:28:24.192Z,59.60
2019-05-30T01:31:00.252Z,59.40
2019-05-30T01:33:25.988Z,59.50
2019-05-30T01:35:57.762Z,59.40
2019-05-30T01:38:28.990Z,59.30
2019-05-30T01:40:59.676Z,59.30
2019-05-30T01:43:30.243Z,59.20
2019-05-30T01:46:00.338Z,59.10
2019-05-30T01:48:30.624Z,59.10
2019-05-30T01:51:00.791Z,59.00
2019-05-30T01:53:30.876Z,59.00
2019-05-30T01:56:00.940Z,58.90
2019-05-30T01:58:31.331Z,58.90
2019-05-30T02:01:17.024Z,58.90
2019-05-30T02:03:33.107Z,58.90
2019-05-30T02:06:03.348Z,58.70
2019-05-30T02:08:33.459Z,58.60
2019-05-30T02:11:03.779Z,58.50
2019-05-30T02:13:33.818Z,58.40
2019-05-30T02:16:03.948Z,58.30
2019-05-30T02:18:35.078Z,58.50
2019-05-30T02:21:05.871Z,58.40
2019-05-30T02:23:36.041Z,58.40
2019-05-30T02:26:06.351Z,58.40
2019-05-30T02:28:36.490Z,58.40
2019-05-30T02:31:07.121Z,58.40
2019-05-30T02:33:37.689Z,58.50
2019-05-30T02:36:08.570Z,58.50
2019-05-30T02:38:39.450Z,58.40
2019-05-30T02:41:10.474Z,58.30
2019-05-30T02:43:41.591Z,58.20
2019-05-30T02:46:12.529Z,58.10
2019-05-30T02:48:58.381Z,58.10
2019-05-30T02:51:14.590Z,58.20
2019-05-30T02:53:44.615Z,58.30
2019-05-30T02:56:14.649Z,58.40
2019-05-30T02:58:44.673Z,58.40
2019-05-30T03:01:14.914Z,58.30
2019-05-30T03:03:45.019Z,58.30
2019-05-30T03:06:15.195Z,58.30
2019-05-30T03:08:45.353Z,58.30
2019-05-30T03:11:15.753Z,58.40
2019-05-30T03:13:45.942Z,58.50
2019-05-30T03:16:15.995Z,58.50
2019-05-30T03:18:46.102Z,58.50
2019-05-30T03:21:16.557Z,58.50
2019-05-30T03:23:46.598Z,58.50
2019-05-30T03:26:17.650Z,58.60
2019-05-30T03:28:47.980Z,58.40
2019-05-30T03:31:27.705Z,58.50
2019-05-30T03:33:51.140Z,58.70
2019-05-30T03:36:30.148Z,58.80
2019-05-30T03:38:53.390Z,59.00
2019-05-30T03:41:23.503Z,59.00
2019-05-30T03:43:53.869Z,58.90
2019-05-30T03:46:27.385Z,59.20
2019-05-30T03:49:00.796Z,59.20
2019-05-30T03:51:32.200Z,59.30
2019-05-30T03:54:04.803Z,59.20
2019-05-30T03:56:39.113Z,59.20
2019-05-30T03:59:36.431Z,59.30
2019-05-30T04:02:55.934Z,59.40
2019-05-30T04:05:19.291Z,59.40
2019-05-30T04:07:53.037Z,59.60
2019-05-30T04:10:25.950Z,59.50
2019-05-30T04:13:41.287Z,59.50
2019-05-30T04:16:13.411Z,59.70
2019-05-30T04:18:43.369Z,59.60
2019-05-30T04:21:16.694Z,59.70
2019-05-30T04:23:46.305Z,59.90
2019-05-30T04:26:17.874Z,60.10
2019-05-30T04:28:48.366Z,60.10
2019-05-30T04:31:19.406Z,60.10
2019-05-30T04:33:50.008Z,60.10
2019-05-30T04:36:20.226Z,60.70
2019-05-30T04:38:50.350Z,60.50
2019-05-30T04:41:20.988Z,60.20
2019-05-30T04:43:51.291Z,60.40
2019-05-30T04:46:22.399Z,60.10
2019-05-30T04:48:52.512Z,60.40
2019-05-30T04:51:22.887Z,60.50
2019-05-30T04:53:52.901Z,60.50
2019-05-30T04:56:22.979Z,60.40
2019-05-30T04:58:53.548Z,60.50
2019-05-30T05:01:25.036Z,60.90
2019-05-30T05:03:55.229Z,61.30
2019-05-30T05:06:25.271Z,61.70
2019-05-30T05:08:55.282Z,62.00
2019-05-30T05:11:25.610Z,61.40
2019-05-30T05:13:55.858Z,62.00
2019-05-30T05:16:35.359Z,61.30
2019-05-30T05:18:57.901Z,61.10
2019-05-30T05:21:28.083Z,61.80
2019-05-30T05:23:58.140Z,61.90
2019-05-30T05:26:28.211Z,62.90
2019-05-30T05:28:58.376Z,62.00
2019-05-30T05:31:30.110Z,61.00
2019-05-30T05:34:01.027Z,60.80
2019-05-30T05:36:31.134Z,60.80
2019-05-30T05:39:01.181Z,60.10
2019-05-30T05:41:31.887Z,60.40
2019-05-30T05:44:02.131Z,60.20
2019-05-30T05:46:32.227Z,60.50
2019-05-30T05:49:02.361Z,60.10
2019-05-30T05:51:32.480Z,60.00
2019-05-30T05:54:02.619Z,59.70
2019-05-30T05:56:32.667Z,59.60
2019-05-30T05:59:02.703Z,60.10
2019-05-30T06:01:33.379Z,59.90
2019-05-30T06:04:12.513Z,60.10
2019-05-30T06:06:35.153Z,60.00
2019-05-30T06:09:06.106Z,60.10
2019-05-30T06:11:36.411Z,59.80
2019-05-30T06:14:06.427Z,59.70
2019-05-30T06:16:36.474Z,60.10
2019-05-30T06:19:06.574Z,60.20
2019-05-30T06:21:36.705Z,60.30
2019-05-30T06:24:06.798Z,60.40
2019-05-30T06:26:36.841Z,60.80
2019-05-30T06:29:06.861Z,60.60
2019-05-30T06:31:37.215Z,60.10
2019-05-30T06:34:07.363Z,60.00
2019-05-30T06:36:37.455Z,59.80
2019-05-30T06:39:08.478Z,59.40
2019-05-30T06:41:38.523Z,59.30
2019-05-30T06:44:08.849Z,59.30
2019-05-30T06:46:38.877Z,59.20
2019-05-30T06:49:09.700Z,59.00
2019-05-30T06:51:39.788Z,59.20
2019-05-30T06:54:09.889Z,59.00
2019-05-30T06:56:40.014Z,58.20
2019-05-30T06:59:10.054Z,58.00
2019-05-30T07:01:40.219Z,57.50
2019-05-30T07:04:10.839Z,57.70
2019-05-30T07:06:41.902Z,57.80
2019-05-30T07:09:12.132Z,57.60
2019-05-30T07:11:42.325Z,55.80
2019-05-30T07:14:12.764Z,56.00
2019-05-30T07:16:43.095Z,56.30
2019-05-30T07:19:13.110Z,54.40
2019-05-30T07:21:43.139Z,53.80
2019-05-30T07:24:13.269Z,54.20
2019-05-30T07:26:43.310Z,55.20
2019-05-30T07:29:13.420Z,54.80
2019-05-30T07:31:43.444Z,54.70
2019-05-30T07:34:13.836Z,54.70
2019-05-30T07:36:44.580Z,55.10
2019-05-30T07:39:15.304Z,54.70
2019-05-30T07:41:45.483Z,54.20
2019-05-30T07:44:15.819Z,54.40
2019-05-30T07:46:45.923Z,55.20
2019-05-30T07:49:16.456Z,54.90
2019-05-30T07:51:46.859Z,55.00
2019-05-30T07:54:18.353Z,55.40
2019-05-30T07:56:48.822Z,55.90
2019-05-30T07:59:19.209Z,56.30
2019-05-30T08:01:49.531Z,54.80
2019-05-30T08:04:19.633Z,54.40
2019-05-30T08:06:49.653Z,53.10
2019-05-30T08:09:19.717Z,51.80
2019-05-30T08:11:49.835Z,51.70
2019-05-30T08:14:19.958Z,51.00
2019-05-30T08:16:50.084Z,50.50
2019-05-30T08:19:21.003Z,50.90
2019-05-30T08:21:51.219Z,51.30
2019-05-30T08:24:21.381Z,52.60
2019-05-30T08:26:51.453Z,51.80
2019-05-30T08:29:21.593Z,52.60
2019-05-30T08:31:51.718Z,52.60
2019-05-30T08:34:22.406Z,53.80
2019-05-30T08:36:52.906Z,53.80
2019-05-30T08:39:22.978Z,54.20
2019-05-30T08:41:53.020Z,52.60
2019-05-30T08:44:23.565Z,52.80
2019-05-30T08:46:53.674Z,50.50
2019-05-30T08:49:24.048Z,49.90
2019-05-30T08:51:54.603Z,50.30
2019-05-30T08:54:24.998Z,50.70
2019-05-30T08:56:55.318Z,51.40
2019-05-30T08:59:25.377Z,51.20
2019-05-30T09:01:55.867Z,50.50
2019-05-30T09:04:26.708Z,50.10
2019-05-30T09:06:56.736Z,49.80
2019-05-30T09:09:27.232Z,50.30
2019-05-30T09:11:57.739Z,50.50
2019-05-30T09:14:28.268Z,50.70
2019-05-30T09:16:58.316Z,52.30
2019-05-30T09:19:28.703Z,52.70
2019-05-30T09:21:59.879Z,52.30
2019-05-30T09:24:30.264Z,51.10
2019-05-30T09:27:00.723Z,50.50
2019-05-30T09:29:31.567Z,50.50
2019-05-30T09:32:01.595Z,49.10
2019-05-30T09:34:32.062Z,48.30
2019-05-30T09:37:06.261Z,47.50
2019-05-30T09:39:36.812Z,46.70
2019-05-30T09:42:07.274Z,46.60
2019-05-30T09:44:37.865Z,47.60
2019-05-30T09:47:08.288Z,46.20
2019-05-30T09:49:38.379Z,47.00
2019-05-30T09:52:08.912Z,47.10
2019-05-30T09:54:39.353Z,47.40
2019-05-30T09:57:09.749Z,47.70
2019-05-30T09:59:39.822Z,48.40
2019-05-30T10:02:09.933Z,48.30
2019-05-30T10:04:40.411Z,50.00
2019-05-30T10:07:10.542Z,50.50
2019-05-30T10:09:40.699Z,51.90
2019-05-30T10:12:11.386Z,50.40
2019-05-30T10:14:41.659Z,49.50
2019-05-30T10:17:12.046Z,48.80
2019-05-30T10:19:42.156Z,49.10
2019-05-30T10:22:12.441Z,49.80
2019-05-30T10:24:43.096Z,49.20
2019-05-30T10:27:13.450Z,49.50
2019-05-30T10:29:43.536Z,50.50
2019-05-30T10:32:13.599Z,50.40
2019-05-30T10:34:46.153Z,49.20
2019-05-30T10:37:16.208Z,49.50
2019-05-30T10:39:47.275Z,50.40
2019-05-30T10:42:18.456Z,49.50
2019-05-30T10:44:49.985Z,49.40
2019-05-30T10:47:27.255Z,48.70
2019-05-30T10:49:58.121Z,47.70
2019-05-30T10:52:28.144Z,48.60
2019-05-30T10:54:58.182Z,47.40
2019-05-30T10:57:28.208Z,47.10
2019-05-30T10:59:58.252Z,48.10
2019-05-30T11:02:29.180Z,47.60
2019-05-30T11:04:59.721Z,48.50
2019-05-30T11:07:55.070Z,47.90
2019-05-30T11:10:20.852Z,46.40
2019-05-30T11:12:56.376Z,45.30
2019-05-30T11:15:23.476Z,46.00
2019-05-30T11:17:54.820Z,46.80
2019-05-30T11:20:25.392Z,45.60
2019-05-30T11:22:56.438Z,48.40
2019-05-30T11:25:27.036Z,46.80
2019-05-30T11:27:58.845Z,44.10
2019-05-30T11:30:30.411Z,43.80
2019-05-30T11:33:01.416Z,45.30
2019-05-30T11:35:32.194Z,44.90
2019-05-30T11:38:03.354Z,44.50
2019-05-30T11:40:34.000Z,45.30
2019-05-30T11:43:05.957Z,46.20
2019-05-30T11:45:36.014Z,45.70
2019-05-30T11:48:06.080Z,46.20
2019-05-30T11:50:36.151Z,43.30
2019-05-30T11:53:06.253Z,42.70
2019-05-30T11:55:36.309Z,41.70
2019-05-30T11:58:06.426Z,41.00
2019-05-30T12:00:37.276Z,41.50
2019-05-30T12:03:07.370Z,41.80
2019-05-30T12:05:37.426Z,41.80
2019-05-30T12:08:07.549Z,40.20
2019-05-30T12:10:37.620Z,41.10
2019-05-30T12:13:07.633Z,41.10
2019-05-30T12:15:38.115Z,40.70
2019-05-30T12:18:08.147Z,41.30
2019-05-30T12:20:38.582Z,42.00
2019-05-30T12:23:10.469Z,41.50
2019-05-30T12:25:40.829Z,42.00
2019-05-30T12:28:10.910Z,43.20
2019-05-30T12:30:55.065Z,42.60
2019-05-30T12:33:12.837Z,42.20
2019-05-30T12:35:43.900Z,42.40
2019-05-30T12:38:14.402Z,43.50
2019-05-30T12:40:44.552Z,46.10
2019-05-30T12:43:14.978Z,45.70
2019-05-30T12:45:45.037Z,48.10
2019-05-30T12:48:15.128Z,44.00
2019-05-30T12:50:45.496Z,43.00
2019-05-30T12:53:15.630Z,44.30
2019-05-30T12:55:45.654Z,46.30
2019-05-30T12:58:15.805Z,45.40
2019-05-30T13:00:46.619Z,44.60
2019-05-30T13:03:16.732Z,44.50
2019-05-30T13:05:46.783Z,43.80
2019-05-30T13:08:21.554Z,42.70
2019-05-30T13:10:48.962Z,42.80
2019-05-30T13:13:19.093Z,44.70
2019-05-30T13:15:49.560Z,43.30
2019-05-30T13:18:19.781Z,43.00
2019-05-30T13:20:49.969Z,43.30
2019-05-30T13:23:20.037Z,41.20
2019-05-30T13:25:50.313Z,40.60
2019-05-30T13:28:21.460Z,40.40
2019-05-30T13:30:53.295Z,40.60
2019-05-30T13:33:23.343Z,41.60
2019-05-30T13:35:54.311Z,47.50
2019-05-30T13:38:26.786Z,44.10
2019-05-30T13:40:57.383Z,41.10
2019-05-30T13:43:28.183Z,42.00
2019-05-30T13:45:58.539Z,41.80
2019-05-30T13:48:28.727Z,40.90
2019-05-30T13:50:58.777Z,41.90
2019-05-30T13:53:29.163Z,43.00
2019-05-30T13:55:59.775Z,43.90
2019-05-30T13:58:29.879Z,42.40
2019-05-30T14:01:04.245Z,39.70
2019-05-30T14:03:32.174Z,39.80
2019-05-30T14:06:03.012Z,41.60
2019-05-30T14:08:41.432Z,42.60
2019-05-30T14:11:06.813Z,40.80
2019-05-30T14:13:37.143Z,42.90
2019-05-30T14:16:07.637Z,40.30
2019-05-30T14:18:38.407Z,39.70
2019-05-30T14:21:09.358Z,38.30
2019-05-30T14:23:39.587Z,39.00
2019-05-30T14:26:09.649Z,38.10
2019-05-30T14:28:39.680Z,39.40
2019-05-30T14:31:11.697Z,40.50
2019-05-30T14:33:42.198Z,38.80
2019-05-30T14:36:14.234Z,39.60
2019-05-30T14:38:57.125Z,39.60
2019-05-30T14:41:16.136Z,39.60
2019-05-30T14:43:46.188Z,38.80
2019-05-30T14:46:16.649Z,38.50
2019-05-30T14:48:47.114Z,38.40
2019-05-30T14:51:17.629Z,38.70
2019-05-30T14:53:47.672Z,40.70
2019-05-30T14:56:18.074Z,39.90
2019-05-30T14:58:48.521Z,38.20
2019-05-30T15:01:19.045Z,38.40
2019-05-30T15:03:49.084Z,38.50
2019-05-30T15:06:19.147Z,38.10
2019-05-30T15:08:49.622Z,38.70
2019-05-30T15:11:19.667Z,38.50
2019-05-30T15:13:49.776Z,37.60
2019-05-30T15:16:19.813Z,37.40
2019-05-30T15:18:50.250Z,37.60
2019-05-30T15:21:20.335Z,36.60
2019-05-30T15:23:50.423Z,37.50
2019-05-30T15:26:20.478Z,37.60
2019-05-30T15:28:51.361Z,35.30
2019-05-30T15:31:21.548Z,35.30
2019-05-30T15:33:52.861Z,35.90
2019-05-30T15:36:22.880Z,35.50
2019-05-30T15:38:55.979Z,36.50
2019-05-30T15:41:26.085Z,36.90
2019-05-30T15:43:56.533Z,37.90
2019-05-30T15:46:26.678Z,36.40
2019-05-30T15:48:56.733Z,37.00
2019-05-30T15:51:27.156Z,36.20
2019-05-30T15:53:57.180Z,35.90
2019-05-30T15:56:27.255Z,36.70
2019-05-30T15:58:57.675Z,36.80
2019-05-30T16:01:28.474Z,38.00
2019-05-30T16:03:58.650Z,38.20
2019-05-30T16:06:29.493Z,40.00
2019-05-30T16:08:59.750Z,38.50
2019-05-30T16:11:30.665Z,37.90
2019-05-30T16:14:01.590Z,38.30
2019-05-30T16:16:39.300Z,38.70
2019-05-30T16:19:16.355Z,36.50
2019-05-30T16:21:36.453Z,36.70
2019-05-30T16:24:06.832Z,36.10
2019-05-30T16:26:37.648Z,36.00
2019-05-30T16:29:07.842Z,35.60
2019-05-30T16:31:38.104Z,36.40
2019-05-30T16:34:10.474Z,35.80
2019-05-30T16:36:41.014Z,35.40
2019-05-30T16:39:11.238Z,34.60
2019-05-30T16:41:42.892Z,34.20
2019-05-30T16:44:14.195Z,35.50
2019-05-30T16:46:44.291Z,35.70
2019-05-30T16:49:14.403Z,37.00
2019-05-30T16:51:44.531Z,36.10
2019-05-30T16:54:15.164Z,36.70
2019-05-30T16:56:45.246Z,36.50
2019-05-30T16:59:16.494Z,36.80
2019-05-30T17:01:56.857Z,36.10
2019-05-30T17:04:18.957Z,36.50
2019-05-30T17:06:49.582Z,36.50
2019-05-30T17:09:21.494Z,36.70
2019-05-30T17:11:52.397Z,35.20
2019-05-30T17:14:23.669Z,35.90
2019-05-30T17:16:54.630Z,36.10
2019-05-30T17:19:26.481Z,36.30
2019-05-30T17:21:56.841Z,36.50
2019-05-30T17:24:27.254Z,35.90
2019-05-30T17:26:57.541Z,36.50
2019-05-30T17:29:27.806Z,36.30
2019-05-30T17:31:57.950Z,36.60
2019-05-30T17:34:28.504Z,36.70
2019-05-30T17:36:59.172Z,36.30
2019-05-30T17:39:29.226Z,36.30
2019-05-30T17:41:59.442Z,36.60
2019-05-30T17:44:29.875Z,38.50
2019-05-30T17:47:00.238Z,40.10
2019-05-30T17:49:31.403Z,40.30
2019-05-30T17:52:01.458Z,41.00
2019-05-30T17:54:33.376Z,41.80
2019-05-30T17:57:03.544Z,42.40
2019-05-30T17:59:33.995Z,43.40
2019-05-30T18:02:04.754Z,42.50
2019-05-30T18:04:35.204Z,43.20
2019-05-30T18:07:05.361Z,42.80
2019-05-30T18:09:35.588Z,43.60
2019-05-30T18:12:05.702Z,44.00
2019-05-30T18:14:35.752Z,43.50
2019-05-30T18:17:09.291Z,44.10
2019-05-30T18:19:38.597Z,43.80
2019-05-30T18:22:09.419Z,44.70
2019-05-30T18:24:39.552Z,44.80
2019-05-30T18:27:09.960Z,44.50
2019-05-30T18:29:40.062Z,44.60
2019-05-30T18:32:10.873Z,44.90
2019-05-30T18:34:41.027Z,44.30
2019-05-30T18:37:11.300Z,45.20
2019-05-30T18:39:41.457Z,46.10
2019-05-30T18:42:11.570Z,45.70
2019-05-30T18:44:42.238Z,46.00
2019-05-30T18:47:13.245Z,45.30
2019-05-30T18:49:43.322Z,46.10
2019-05-30T18:52:17.127Z,45.40
2019-05-30T18:54:45.909Z,44.80
2019-05-30T18:57:16.808Z,45.30
2019-05-30T18:59:46.868Z,45.10
2019-05-30T19:02:18.515Z,45.60
2019-05-30T19:04:48.830Z,46.10
2019-05-30T19:07:18.954Z,46.00
2019-05-30T19:09:49.458Z,45.80
2019-05-30T19:12:19.865Z,46.40
2019-05-30T19:14:50.017Z,45.80
2019-05-30T19:17:20.127Z,45.90
2019-05-30T19:19:51.306Z,46.10
2019-05-30T19:22:21.569Z,46.10
2019-05-30T19:24:51.728Z,46.00
2019-05-30T19:27:21.897Z,46.40
2019-05-30T19:29:51.951Z,46.30
2019-05-30T19:32:22.064Z,46.60
2019-05-30T19:34:52.178Z,46.80
2019-05-30T19:37:22.314Z,46.50
2019-05-30T19:39:52.380Z,46.80
2019-05-30T19:42:22.473Z,46.50
2019-05-30T19:44:52.540Z,46.60
2019-05-30T19:47:22.621Z,47.20
2019-05-30T19:49:54.288Z,46.90
2019-05-30T19:52:24.372Z,47.00
2019-05-30T19:54:54.879Z,47.40
2019-05-30T19:57:25.715Z,47.60
2019-05-30T19:59:57.477Z,47.50
2019-05-30T20:02:28.332Z,47.60
2019-05-30T20:04:58.444Z,47.70
2019-05-30T20:07:30.445Z,47.50
2019-05-30T20:10:02.035Z,46.90
2019-05-30T20:12:32.720Z,46.60
2019-05-30T20:15:03.613Z,46.80
2019-05-30T20:17:33.958Z,46.90
2019-05-30T20:20:04.984Z,46.80
2019-05-30T20:22:36.366Z,47.30
2019-05-30T20:25:08.562Z,47.30
2019-05-30T20:27:39.052Z,47.20
2019-05-30T20:30:10.981Z,47.30
2019-05-30T20:32:43.153Z,47.40
2019-05-30T20:35:14.177Z,47.30
2019-05-30T20:37:44.793Z,47.40
2019-05-30T20:40:15.410Z,47.60
2019-05-30T20:42:47.057Z,47.60
2019-05-30T20:45:18.113Z,47.60
2019-05-30T20:47:48.310Z,47.80
2019-05-30T20:50:19.419Z,47.80
2019-05-30T20:52:49.940Z,47.50
2019-05-30T20:55:19.976Z,47.80
2019-05-30T20:57:50.140Z,48.20
2019-05-30T21:00:20.789Z,47.70
2019-05-30T21:02:51.343Z,48.00
2019-05-30T21:05:21.552Z,48.00
2019-05-30T21:07:52.490Z,48.40
2019-05-30T21:10:24.063Z,48.30
2019-05-30T21:12:54.641Z,48.40
2019-05-30T21:15:24.819Z,48.70
2019-05-30T21:17:56.899Z,48.80
2019-05-30T21:20:27.221Z,48.90
2019-05-30T21:22:58.015Z,48.90
2019-05-30T21:25:28.449Z,48.20
2019-05-30T21:27:59.171Z,49.10
2019-05-30T21:30:29.601Z,49.40
2019-05-30T21:32:59.714Z,49.70
2019-05-30T21:35:30.251Z,49.30
2019-05-30T21:38:00.496Z,49.30
2019-05-30T21:40:30.899Z,49.30
2019-05-30T21:43:06.520Z,49.50
2019-05-30T21:45:33.789Z,49.30
2019-05-30T21:48:03.848Z,49.30
2019-05-30T21:50:33.869Z,49.80
2019-05-30T21:53:04.009Z,49.60
2019-05-30T21:55:34.582Z,49.50
2019-05-30T21:58:05.369Z,49.10
2019-05-30T22:01:20.574Z,50.10
2019-05-30T22:03:51.044Z,49.90
2019-05-30T22:06:21.597Z,50.50
2019-05-30T22:08:51.815Z,49.80
2019-05-30T22:11:22.405Z,50.00
2019-05-30T22:13:53.875Z,49.90
2019-05-30T22:16:24.575Z,49.90
2019-05-30T22:18:55.129Z,49.90
2019-05-30T22:21:25.844Z,50.10
2019-05-30T22:23:57.195Z,50.40
2019-05-30T22:26:28.280Z,50.40
2019-05-30T22:28:58.414Z,50.70
2019-05-30T22:31:28.607Z,50.80
2019-05-30T22:33:59.003Z,50.70
2019-05-30T22:36:29.113Z,50.40
2019-05-30T22:38:59.379Z,50.30
2019-05-30T22:41:30.870Z,50.50
2019-05-30T22:44:00.895Z,50.50
2019-05-30T22:46:30.927Z,50.50
2019-05-30T22:49:01.008Z,50.70
2019-05-30T22:51:31.488Z,50.70
2019-05-30T22:54:01.889Z,50.70
2019-05-30T22:56:31.996Z,50.60
2019-05-30T22:59:02.097Z,50.60
2019-05-30T23:01:32.183Z,50.60
2019-05-30T23:04:02.591Z,50.70
2019-05-30T23:06:32.617Z,50.70
2019-05-30T23:09:03.311Z,50.80
2019-05-30T23:11:33.744Z,50.70
2019-05-30T23:14:03.803Z,50.60
2019-05-30T23:16:33.921Z,50.60
2019-05-30T23:19:03.983Z,50.60
2019-05-30T23:21:34.003Z,50.90
2019-05-30T23:24:04.825Z,50.70
2019-05-30T23:26:34.908Z,50.60
2019-05-30T23:29:05.300Z,51.00
2019-05-30T23:31:35.339Z,50.30
2019-05-30T23:34:05.856Z,50.20
2019-05-30T23:36:36.359Z,50.60
2019-05-30T23:39:07.457Z,50.90
2019-05-30T23:41:37.512Z,50.40
2019-05-30T23:44:11.678Z,50.70
2019-05-30T23:46:39.960Z,50.40
2019-05-30T23:49:10.029Z,50.20
2019-05-30T23:51:40.467Z,49.70
2019-05-30T23:54:10.649Z,50.20
2019-05-30T23:56:42.392Z,50.40
2019-05-30T23:59:12.386Z,49.40
